Deadhorse, AK

10:56 PM AKST on January 19, 2019 (GMT -0900)
Deadhorse | | Change Station

Elev 59 ft 70.19 °N, 148.46 °W | Updated 3 minutes ago

Light Snow
Light Snow Blowing Snow Mist
-5 °F
Feels Like -31 °F
N
25
Wind Variable Wind from SW

Today
High -- | Low -- °F
--% Chance of Precip.
Yesterday
High -- | Low -- °F
Precip. -- in
Pressure 29.94 in
Visibility 2.0 miles
Clouds Scattered Clouds 700 ft
Windchill -31 °F
Dew Point -10 °F
Humidity 80%
Rainfall 0.00 in
Snow Depth Not available.
12:17 PM 1:52 PM
Waxing Gibbous, 99% visible
METAR PASC 200753Z 23022KT 2SM -SN BLSN BR SCT007 M21/M23 A2993 RMK AO2 PK WND 23026/0747 SNB46 SLP138 P0000 T12061233
Pressure 29.94 in
Visibility 2.0 miles
Clouds Scattered Clouds 700 ft
Windchill -31 °F
Dew Point -10 °F
Humidity 80%
Rainfall 0.00 in
Snow Depth Not available.
12:17 PM 1:52 PM
Waxing Gibbous, 99% visible
METAR PASC 200753Z 23022KT 2SM -SN BLSN BR SCT007 M21/M23 A2993 RMK AO2 PK WND 23026/0747 SNB46 SLP138 P0000 T12061233

Get Severe Weather Alerts

Thanks for signing up!

Be on the lookout for a verification email in your inbox.

You'll start receiving the daily forecast at 6 AM.

×

10-Day Weather Forecast

Almanac

Astronomy

Jan. 19, 2019 Rise Set
Actual Time
Civil Twilight
Nautical Twilight
Astronomical Twilight
Moon
Length of Visible Light
Length of Day
Tomorrow will be .
, % of the Moon is Illuminated

Today's Extremes

State Highs State Lows

Community

WunderPhotos

Category 6

Welcome to Category 6. This is the collective home for Weather Underground's featured writeups by Dr. Jeff Masters (right), Bob Henson (left), Chris Burt, and other regular contributors.

Nearby

Air Quality

  Air Quality AQ Index Pollutant
Not available.

Snow Depth

Station Depth Elevation

Earthquake Activity

City Distance Mag. Time & Date
Minimum magnitude displayed is 2.5.

Coastal Water Temperatures

Place Temperature

Stations

Nearby Weather Stations

Station Location Temp. Windchill Dew Point Humidity Wind Precip. Elev Updated Type
                   

Watches & Warnings

There are currently no watches in effect.